createdAt,value
2019-04-16T00:01:38.404Z,20.72
2019-04-16T00:05:22.365Z,17.23
2019-04-16T00:08:33.120Z,18.25
2019-04-16T00:11:21.656Z,15.20
2019-04-16T00:14:13.640Z,19.12
2019-04-16T00:16:46.930Z,16.75
2019-04-16T00:19:21.581Z,17.75
2019-04-16T00:22:12.592Z,16.32
2019-04-16T00:24:50.120Z,13.83
2019-04-16T00:27:28.312Z,12.50
2019-04-16T00:30:03.888Z,15.08
2019-04-16T00:32:38.022Z,10.32
2019-04-16T00:35:15.645Z,18.80
2019-04-16T00:37:51.426Z,20.32
2019-04-16T00:40:26.398Z,17.20
2019-04-16T00:42:57.701Z,16.40
2019-04-16T00:45:30.919Z,16.02
2019-04-16T00:48:05.600Z,19.27
2019-04-16T00:50:43.674Z,15.75
2019-04-16T00:53:16.818Z,12.28
2019-04-16T00:55:54.295Z,16.37
2019-04-16T00:58:28.770Z,14.15
2019-04-16T01:01:08.087Z,16.75
2019-04-16T01:03:43.116Z,13.25
2019-04-16T01:06:16.380Z,14.98
2019-04-16T01:08:54.709Z,15.03
2019-04-16T01:11:26.170Z,13.35
2019-04-16T01:13:59.423Z,14.25
2019-04-16T01:16:35.805Z,14.18
2019-04-16T01:19:09.992Z,11.45
2019-04-16T01:21:47.344Z,12.43
2019-04-16T01:24:22.278Z,11.70
2019-04-16T01:26:58.390Z,11.03
2019-04-16T01:29:35.245Z,10.00
2019-04-16T01:32:35.436Z,18.50
2019-04-16T01:35:27.621Z,14.98
2019-04-16T01:38:18.661Z,12.25
2019-04-16T01:41:00.852Z,11.97
2019-04-16T01:43:41.131Z,12.28
2019-04-16T01:46:09.971Z,11.78
2019-04-16T01:48:50.514Z,12.30
2019-04-16T01:51:25.452Z,11.78
2019-04-16T01:53:57.976Z,10.93
2019-04-16T01:56:35.242Z,11.60
2019-04-16T01:59:14.073Z,11.43
2019-04-16T02:01:47.364Z,10.70
2019-04-16T02:04:22.167Z,10.20
2019-04-16T02:06:57.874Z,11.12
2019-04-16T02:09:34.539Z,10.98
2019-04-16T02:12:06.338Z,9.55
2019-04-16T02:14:41.466Z,10.72
2019-04-16T02:17:16.941Z,9.08
2019-04-16T02:19:50.402Z,9.90
2019-04-16T02:22:27.874Z,9.85
2019-04-16T02:25:02.776Z,9.05
2019-04-16T02:27:40.276Z,10.38
2019-04-16T02:30:17.583Z,9.65
2019-04-16T02:32:51.460Z,8.83
2019-04-16T02:35:32.707Z,9.90
2019-04-16T02:38:10.197Z,9.13
2019-04-16T02:40:39.173Z,8.60
2019-04-16T02:43:18.030Z,9.73
2019-04-16T02:45:47.527Z,8.73
2019-04-16T02:48:22.355Z,8.95
2019-04-16T02:51:07.411Z,8.63
2019-04-16T02:54:02.057Z,10.60
2019-04-16T02:57:01.582Z,10.28
2019-04-16T02:59:45.700Z,9.68
2019-04-16T03:02:33.070Z,9.80
2019-04-16T03:05:11.937Z,9.35
2019-04-16T03:07:45.351Z,11.70
2019-04-16T03:10:18.695Z,16.20
2019-04-16T03:12:55.422Z,15.72
2019-04-16T03:15:56.814Z,13.50
2019-04-16T03:18:37.104Z,14.63
2019-04-16T03:21:11.870Z,11.78
2019-04-16T03:23:45.276Z,11.35
2019-04-16T03:26:18.613Z,10.60
2019-04-16T03:28:51.979Z,11.08
2019-04-16T03:31:26.500Z,10.75
2019-04-16T03:34:02.710Z,9.83
2019-04-16T03:36:37.760Z,10.32
2019-04-16T03:39:13.188Z,11.53
2019-04-16T03:41:46.243Z,12.05
2019-04-16T03:44:21.267Z,12.20
2019-04-16T03:46:54.599Z,11.48
2019-04-16T03:49:28.504Z,12.80
2019-04-16T03:52:04.785Z,14.28
2019-04-16T03:54:36.941Z,12.30
2019-04-16T03:57:10.313Z,13.32
2019-04-16T03:59:49.463Z,26.82
2019-04-16T04:02:23.116Z,24.45
2019-04-16T04:04:57.607Z,17.92
2019-04-16T04:07:33.383Z,20.48
2019-04-16T04:10:11.569Z,14.10
2019-04-16T04:12:50.194Z,13.43
2019-04-16T04:15:26.368Z,12.88
2019-04-16T04:18:03.201Z,13.03
2019-04-16T04:20:37.630Z,14.40
2019-04-16T04:23:11.072Z,15.83
2019-04-16T04:25:45.053Z,13.65
2019-04-16T04:28:29.199Z,13.35
2019-04-16T04:31:05.588Z,13.45
2019-04-16T04:33:42.690Z,11.60
2019-04-16T04:36:14.824Z,14.78
2019-04-16T04:38:53.548Z,13.48
2019-04-16T04:41:29.124Z,12.18
2019-04-16T04:44:14.048Z,14.53
2019-04-16T04:46:47.331Z,15.00
2019-04-16T04:49:29.931Z,13.78
2019-04-16T04:51:57.170Z,13.80
2019-04-16T04:54:30.775Z,15.70
2019-04-16T04:57:04.499Z,15.40
2019-04-16T04:59:37.791Z,13.15
2019-04-16T05:02:14.536Z,14.80
2019-04-16T05:05:10.992Z,12.93
2019-04-16T05:07:44.282Z,12.90
2019-04-16T05:10:19.569Z,13.03
2019-04-16T05:12:53.569Z,13.30
2019-04-16T05:15:29.441Z,12.78
2019-04-16T05:18:06.239Z,11.70
2019-04-16T05:20:41.290Z,12.70
2019-04-16T05:23:17.853Z,13.70
2019-04-16T05:25:55.970Z,14.75
2019-04-16T05:28:29.193Z,14.05
2019-04-16T05:31:03.886Z,16.20
2019-04-16T05:33:39.651Z,18.82
2019-04-16T05:36:14.179Z,20.92
2019-04-16T05:38:49.160Z,18.73
2019-04-16T05:41:24.308Z,18.75
2019-04-16T05:43:58.474Z,16.10
2019-04-16T05:46:34.708Z,14.95
2019-04-16T05:49:09.172Z,14.68
2019-04-16T05:51:42.272Z,15.38
2019-04-16T05:54:44.324Z,16.80
2019-04-16T05:57:25.644Z,16.75
2019-04-16T06:00:02.794Z,20.85
2019-04-16T06:02:41.956Z,20.25
2019-04-16T06:05:21.119Z,18.20
2019-04-16T06:07:51.823Z,16.45
2019-04-16T06:10:25.096Z,16.15
2019-04-16T06:13:14.872Z,16.23
2019-04-16T06:16:26.179Z,16.60
2019-04-16T06:19:11.536Z,17.25
2019-04-16T06:22:21.841Z,18.30
2019-04-16T06:25:16.572Z,18.82
2019-04-16T06:28:00.869Z,19.20
2019-04-16T06:30:53.798Z,18.42
2019-04-16T06:33:54.496Z,18.87
2019-04-16T06:36:45.103Z,20.65
2019-04-16T06:39:33.003Z,20.20
2019-04-16T06:42:13.288Z,21.82
2019-04-16T06:45:08.305Z,20.57
2019-04-16T06:48:00.151Z,20.68
2019-04-16T06:50:59.621Z,19.17
2019-04-16T06:53:56.712Z,20.00
2019-04-16T06:56:41.940Z,19.57
2019-04-16T06:59:45.982Z,20.43
2019-04-16T07:02:43.199Z,18.82
2019-04-16T07:05:31.934Z,24.45
2019-04-16T07:08:37.462Z,22.52
2019-04-16T07:11:05.343Z,20.55
2019-04-16T07:13:41.925Z,20.35
2019-04-16T07:16:19.777Z,20.45
2019-04-16T07:19:16.803Z,18.55
2019-04-16T07:21:49.944Z,19.65
2019-04-16T07:24:30.088Z,19.25
2019-04-16T07:27:01.943Z,19.25
2019-04-16T07:29:57.937Z,20.43
2019-04-16T07:33:06.537Z,19.30
2019-04-16T07:36:15.964Z,20.10
2019-04-16T07:39:13.332Z,17.60
2019-04-16T07:42:09.370Z,18.32
2019-04-16T07:44:55.518Z,18.85
2019-04-16T07:47:43.686Z,19.20
2019-04-16T07:50:35.656Z,17.02
2019-04-16T07:53:38.386Z,17.40
2019-04-16T07:56:20.564Z,20.17
2019-04-16T07:59:12.936Z,15.68
2019-04-16T08:01:47.722Z,16.87
2019-04-16T08:04:36.477Z,16.00
2019-04-16T08:07:20.198Z,13.88
2019-04-16T08:09:53.861Z,13.78
2019-04-16T08:12:36.980Z,15.23
2019-04-16T08:15:14.195Z,14.23
2019-04-16T08:17:54.610Z,14.83
2019-04-16T08:20:27.989Z,14.58
2019-04-16T08:23:03.209Z,14.40
2019-04-16T08:25:39.124Z,14.40
2019-04-16T08:28:24.355Z,13.50
2019-04-16T08:31:00.764Z,12.47
2019-04-16T08:33:34.166Z,12.07
2019-04-16T08:36:24.825Z,12.58
2019-04-16T08:39:16.209Z,12.50
2019-04-16T08:41:52.089Z,11.55
2019-04-16T08:44:42.005Z,11.43
2019-04-16T08:47:17.551Z,10.13
2019-04-16T08:50:11.549Z,9.90
2019-04-16T08:52:58.697Z,9.40
2019-04-16T08:55:31.788Z,11.25
2019-04-16T08:58:22.759Z,10.35
2019-04-16T09:01:18.768Z,9.75
2019-04-16T09:03:50.687Z,12.65
2019-04-16T09:06:26.500Z,9.43
2019-04-16T09:09:14.230Z,8.23
2019-04-16T09:12:14.102Z,10.00
2019-04-16T09:14:56.061Z,10.05
2019-04-16T09:17:34.873Z,11.30
2019-04-16T09:20:13.519Z,10.00
2019-04-16T09:22:49.466Z,10.18
2019-04-16T09:25:33.070Z,9.43
2019-04-16T09:28:25.839Z,7.72
2019-04-16T09:31:30.677Z,9.20
2019-04-16T09:34:22.512Z,8.65
2019-04-16T09:37:25.398Z,8.88
2019-04-16T09:40:18.075Z,8.00
2019-04-16T09:43:16.172Z,6.47
2019-04-16T09:45:41.808Z,7.97
2019-04-16T09:48:27.134Z,8.90
2019-04-16T09:51:02.882Z,7.58
2019-04-16T09:53:40.379Z,7.35
2019-04-16T09:56:32.245Z,8.63
2019-04-16T09:59:15.851Z,7.35
2019-04-16T10:02:10.934Z,6.25
2019-04-16T10:05:01.491Z,6.15
2019-04-16T10:07:41.098Z,6.47
2019-04-16T10:10:32.168Z,7.92
2019-04-16T10:13:14.346Z,6.87
2019-04-16T10:15:47.538Z,7.33
2019-04-16T10:18:37.902Z,7.95
2019-04-16T10:21:18.776Z,7.30
2019-04-16T10:24:35.825Z,7.37
2019-04-16T10:27:34.025Z,6.03
2019-04-16T10:30:35.937Z,6.60
2019-04-16T10:33:15.066Z,7.58
2019-04-16T10:35:48.214Z,7.08
2019-04-16T10:38:55.072Z,6.90
2019-04-16T10:41:58.438Z,7.22
2019-04-16T10:44:49.925Z,6.33
2019-04-16T10:48:03.711Z,6.78
2019-04-16T10:51:04.943Z,7.03
2019-04-16T10:53:53.841Z,6.20
2019-04-16T10:56:46.487Z,6.10
2019-04-16T10:59:49.590Z,6.90
2019-04-16T11:02:44.062Z,6.60
2019-04-16T11:05:41.752Z,6.95
2019-04-16T11:08:15.323Z,6.28
2019-04-16T11:10:48.337Z,7.20
2019-04-16T11:13:58.350Z,7.00
2019-04-16T11:16:37.210Z,7.65
2019-04-16T11:19:27.663Z,7.83
2019-04-16T11:22:16.062Z,8.20
2019-04-16T11:24:52.398Z,7.45
2019-04-16T11:27:25.550Z,6.97
2019-04-16T11:30:31.285Z,7.10
2019-04-16T11:33:07.682Z,7.72
2019-04-16T11:35:40.854Z,8.18
2019-04-16T11:38:31.413Z,6.78
2019-04-16T11:41:07.323Z,7.33
2019-04-16T11:43:57.733Z,7.40
2019-04-16T11:46:46.662Z,7.35
2019-04-16T11:49:34.924Z,7.53
2019-04-16T11:52:25.881Z,7.05
2019-04-16T11:55:01.503Z,5.92
2019-04-16T11:57:40.529Z,6.42
2019-04-16T12:00:50.929Z,6.12
2019-04-16T12:03:37.033Z,7.17
2019-04-16T12:06:53.301Z,6.00
2019-04-16T12:09:54.274Z,6.25
2019-04-16T12:13:04.405Z,5.92
2019-04-16T12:15:57.367Z,5.97
2019-04-16T12:18:35.741Z,5.25
2019-04-16T12:21:45.265Z,7.72
2019-04-16T12:24:54.901Z,6.80
2019-04-16T12:27:45.795Z,6.62
2019-04-16T12:31:10.471Z,6.20
2019-04-16T12:34:05.318Z,5.33
2019-04-16T12:36:59.746Z,5.90
2019-04-16T12:39:50.024Z,6.15
2019-04-16T12:42:57.309Z,6.12
2019-04-16T12:45:49.187Z,6.15
2019-04-16T12:48:59.448Z,5.20
2019-04-16T12:51:57.318Z,5.47
2019-04-16T12:55:04.512Z,6.25
2019-04-16T12:57:49.341Z,4.83
2019-04-16T13:00:37.151Z,6.35
2019-04-16T13:03:52.374Z,6.62
2019-04-16T13:06:55.234Z,6.37
2019-04-16T13:09:45.983Z,7.25
2019-04-16T13:12:40.961Z,6.00
2019-04-16T13:15:31.635Z,6.30
2019-04-16T13:18:08.199Z,6.60
2019-04-16T13:21:18.096Z,6.75
2019-04-16T13:24:19.342Z,9.80
2019-04-16T13:27:08.897Z,6.25
2019-04-16T13:29:41.972Z,7.15
2019-04-16T13:32:27.926Z,6.47
2019-04-16T13:35:01.191Z,7.47
2019-04-16T13:37:41.385Z,8.33
2019-04-16T13:40:16.208Z,5.75
2019-04-16T13:42:51.977Z,6.70
2019-04-16T13:45:40.572Z,7.70
2019-04-16T13:48:35.151Z,6.95
2019-04-16T13:51:15.122Z,6.65
2019-04-16T13:54:00.361Z,7.50
2019-04-16T13:57:00.007Z,6.05
2019-04-16T14:00:04.364Z,6.87
2019-04-16T14:03:13.887Z,7.22
2019-04-16T14:05:47.239Z,6.53
2019-04-16T14:08:20.264Z,7.35
2019-04-16T14:10:53.338Z,7.30
2019-04-16T14:13:26.462Z,6.42
2019-04-16T14:15:59.515Z,6.70
2019-04-16T14:18:35.615Z,6.42
2019-04-16T14:21:08.568Z,6.62
2019-04-16T14:23:41.706Z,6.30
2019-04-16T14:26:16.385Z,6.33
2019-04-16T14:28:52.437Z,7.35
2019-04-16T14:31:25.868Z,8.10
2019-04-16T14:34:16.647Z,10.20
2019-04-16T14:36:53.119Z,7.40
2019-04-16T14:39:35.142Z,6.97
2019-04-16T14:42:08.442Z,6.67
2019-04-16T14:44:45.541Z,6.90
2019-04-16T14:47:18.583Z,6.95
2019-04-16T14:49:51.796Z,11.43
2019-04-16T14:52:25.898Z,9.18
2019-04-16T14:55:10.486Z,6.83
2019-04-16T14:58:00.853Z,8.90
2019-04-16T15:00:49.123Z,7.15
2019-04-16T15:03:43.098Z,7.17
2019-04-16T15:06:39.687Z,6.75
2019-04-16T15:09:30.208Z,8.10
2019-04-16T15:12:21.067Z,7.33
2019-04-16T15:14:58.610Z,8.98
2019-04-16T15:17:44.485Z,7.33
2019-04-16T15:20:39.537Z,7.80
2019-04-16T15:23:30.710Z,7.53
2019-04-16T15:26:37.661Z,8.08
2019-04-16T15:29:41.905Z,7.42
2019-04-16T15:32:34.096Z,7.67
2019-04-16T15:35:13.867Z,7.80
2019-04-16T15:38:02.719Z,8.45
2019-04-16T15:40:40.299Z,9.60
2019-04-16T15:43:30.255Z,7.92
2019-04-16T15:46:26.153Z,9.35
2019-04-16T15:49:19.422Z,9.00
2019-04-16T15:52:02.710Z,9.40
2019-04-16T15:54:43.903Z,8.43
2019-04-16T15:57:50.858Z,8.13
2019-04-16T16:00:48.905Z,9.80
2019-04-16T16:03:49.969Z,8.20
2019-04-16T16:06:24.798Z,9.73
2019-04-16T16:09:22.808Z,10.55
2019-04-16T16:12:00.975Z,10.20
2019-04-16T16:14:38.545Z,10.95
2019-04-16T16:17:09.474Z,9.05
2019-04-16T16:19:42.550Z,9.75
2019-04-16T16:22:16.854Z,9.93
2019-04-16T16:24:49.883Z,11.00
2019-04-16T16:27:22.972Z,9.93
2019-04-16T16:29:56.189Z,11.63
2019-04-16T16:32:29.222Z,11.08
2019-04-16T16:35:02.357Z,14.68
2019-04-16T16:37:36.894Z,18.65
2019-04-16T16:40:14.628Z,18.80
2019-04-16T16:42:46.705Z,20.02
2019-04-16T16:45:22.063Z,20.50
2019-04-16T16:47:56.521Z,21.17
2019-04-16T16:50:29.734Z,15.18
2019-04-16T16:53:25.251Z,11.08
2019-04-16T16:56:02.296Z,13.50
2019-04-16T16:58:54.518Z,11.97
2019-04-16T17:01:35.994Z,11.38
2019-04-16T17:04:12.976Z,12.55
2019-04-16T17:06:46.258Z,12.40
2019-04-16T17:09:27.140Z,15.03
2019-04-16T17:11:59.469Z,12.58
2019-04-16T17:14:36.270Z,14.55
2019-04-16T17:17:14.177Z,18.05
2019-04-16T17:19:42.329Z,15.78
2019-04-16T17:22:17.400Z,18.23
2019-04-16T17:24:50.462Z,18.57
2019-04-16T17:27:25.936Z,27.17
2019-04-16T17:29:59.017Z,29.72
2019-04-16T17:32:32.289Z,22.15
2019-04-16T17:35:07.580Z,25.92
2019-04-16T17:37:48.372Z,26.15
2019-04-16T17:40:33.643Z,22.90
2019-04-16T17:43:15.669Z,24.90
2019-04-16T17:46:14.508Z,25.95
2019-04-16T17:49:09.657Z,26.27
2019-04-16T17:51:54.731Z,24.18
2019-04-16T17:54:34.504Z,20.32
2019-04-16T17:57:16.994Z,28.35
2019-04-16T18:00:00.461Z,28.92
2019-04-16T18:03:04.561Z,27.17
2019-04-16T18:05:42.788Z,23.85
2019-04-16T18:08:40.817Z,22.42
2019-04-16T18:11:17.729Z,21.60
2019-04-16T18:13:58.047Z,32.23
2019-04-16T18:16:46.122Z,38.92
2019-04-16T18:19:37.069Z,52.35
2019-04-16T18:22:19.558Z,58.50
2019-04-16T18:25:21.353Z,64.65
2019-04-16T18:28:06.217Z,67.58
2019-04-16T18:30:57.309Z,70.83
2019-04-16T18:33:48.524Z,69.40
2019-04-16T18:36:34.596Z,77.92
2019-04-16T18:39:27.235Z,80.87
2019-04-16T18:42:19.178Z,86.65
2019-04-16T18:45:11.404Z,98.75
2019-04-16T18:48:13.862Z,90.05
2019-04-16T18:50:45.287Z,79.90
2019-04-16T18:53:18.892Z,93.72
2019-04-16T18:55:52.394Z,108.15
2019-04-16T18:58:26.681Z,123.62
2019-04-16T19:01:03.020Z,132.20
2019-04-16T19:03:37.386Z,115.62
2019-04-16T19:06:13.941Z,117.20
2019-04-16T19:08:50.671Z,132.12
2019-04-16T19:11:24.369Z,112.15
2019-04-16T19:14:03.728Z,106.70
2019-04-16T19:16:38.065Z,99.72
2019-04-16T19:19:12.288Z,86.60
2019-04-16T19:21:51.343Z,84.92
2019-04-16T19:24:24.263Z,88.67
2019-04-16T19:26:57.731Z,89.40
2019-04-16T19:29:35.854Z,95.42
2019-04-16T19:32:10.458Z,88.78
2019-04-16T19:34:46.986Z,86.90
2019-04-16T19:37:20.504Z,99.25
2019-04-16T19:39:56.260Z,100.30
2019-04-16T19:42:33.368Z,99.20
2019-04-16T19:45:08.654Z,98.90
2019-04-16T19:47:43.091Z,95.17
2019-04-16T19:50:17.757Z,90.42
2019-04-16T19:52:54.997Z,92.45
2019-04-16T19:55:29.436Z,81.02
2019-04-16T19:58:02.620Z,76.75
2019-04-16T20:00:36.446Z,84.17
2019-04-16T20:03:13.188Z,83.42
2019-04-16T20:05:50.996Z,80.42
2019-04-16T20:08:24.228Z,73.85
2019-04-16T20:11:04.009Z,74.45
2019-04-16T20:13:37.511Z,80.00
2019-04-16T20:16:12.176Z,68.25
2019-04-16T20:18:51.080Z,70.87
2019-04-16T20:21:28.601Z,69.90
2019-04-16T20:24:02.062Z,66.85
2019-04-16T20:26:56.404Z,60.23
2019-04-16T20:29:47.555Z,38.02
2019-04-16T20:32:24.523Z,40.30
2019-04-16T20:35:00.511Z,43.50
2019-04-16T20:37:35.310Z,50.92
2019-04-16T20:40:14.687Z,51.02
2019-04-16T20:42:53.606Z,51.50
2019-04-16T20:45:27.526Z,44.35
2019-04-16T20:48:01.124Z,41.48
2019-04-16T20:50:37.181Z,38.67
2019-04-16T20:53:21.703Z,39.13
2019-04-16T20:55:57.783Z,37.03
2019-04-16T20:58:34.896Z,35.38
2019-04-16T21:01:32.803Z,33.67
2019-04-16T21:04:05.037Z,32.88
2019-04-16T21:06:32.958Z,33.23
2019-04-16T21:09:10.242Z,33.23
2019-04-16T21:11:52.946Z,29.52
2019-04-16T21:14:31.996Z,28.70
2019-04-16T21:17:22.199Z,30.08
2019-04-16T21:19:55.365Z,28.02
2019-04-16T21:22:28.963Z,27.65
2019-04-16T21:25:13.797Z,27.60
2019-04-16T21:27:58.503Z,26.12
2019-04-16T21:30:47.058Z,26.20
2019-04-16T21:33:41.278Z,26.52
2019-04-16T21:36:33.875Z,57.98
2019-04-16T21:39:23.117Z,80.10
2019-04-16T21:42:02.372Z,50.52
2019-04-16T21:44:44.564Z,57.58
2019-04-16T21:47:23.599Z,78.85
2019-04-16T21:49:59.734Z,40.73
2019-04-16T21:52:36.885Z,47.48
2019-04-16T21:55:13.910Z,74.72
2019-04-16T21:57:48.873Z,82.33
2019-04-16T22:00:48.353Z,68.62
2019-04-16T22:03:27.328Z,46.53
2019-04-16T22:06:01.049Z,33.20
2019-04-16T22:08:34.412Z,25.40
2019-04-16T22:11:11.780Z,23.32
2019-04-16T22:13:44.113Z,20.88
2019-04-16T22:16:18.938Z,23.52
2019-04-16T22:18:55.092Z,37.90
2019-04-16T22:21:30.630Z,69.32
2019-04-16T22:24:05.244Z,42.80
2019-04-16T22:26:40.135Z,26.02
2019-04-16T22:29:15.798Z,18.50
2019-04-16T22:31:52.676Z,20.45
2019-04-16T22:34:23.215Z,16.97
2019-04-16T22:36:58.070Z,41.18
2019-04-16T22:39:35.818Z,68.37
2019-04-16T22:42:35.150Z,25.52
2019-04-16T22:45:32.022Z,26.50
2019-04-16T22:48:09.105Z,28.98
2019-04-16T22:50:44.696Z,41.73
2019-04-16T22:53:18.063Z,47.98
2019-04-16T22:55:56.322Z,46.73
2019-04-16T22:58:46.525Z,68.50
2019-04-16T23:01:23.520Z,64.58
2019-04-16T23:03:58.856Z,38.60
2019-04-16T23:06:38.680Z,42.73
2019-04-16T23:09:17.904Z,22.55
2019-04-16T23:11:52.688Z,20.15
2019-04-16T23:14:26.193Z,33.15
2019-04-16T23:17:01.266Z,14.75
2019-04-16T23:19:40.649Z,27.15
2019-04-16T23:22:16.401Z,16.70
2019-04-16T23:24:51.737Z,17.77
2019-04-16T23:27:26.534Z,27.15
2019-04-16T23:30:00.422Z,21.70
2019-04-16T23:32:36.023Z,22.80
2019-04-16T23:35:13.477Z,19.07
2019-04-16T23:37:47.879Z,14.90
2019-04-16T23:40:21.225Z,12.90
2019-04-16T23:43:23.153Z,12.33
2019-04-16T23:46:31.092Z,14.85
2019-04-16T23:49:29.090Z,16.10
2019-04-16T23:52:12.827Z,19.23
2019-04-16T23:54:57.743Z,19.80
2019-04-16T23:57:56.801Z,20.95
